Marshall Army Air Field
KFRI : rendu visible

Aérodrome :











RETROUVEZ-NOUS SUR...

 
LOGIN :

S'inscrire | Disclaimer

   EN    FR    IT 

 









Légende :    VFR   VFR Marginal   IFR   IFR Intensif   IFR Très Intensif
Visi : 
Plafond : 
>= 8 km
>= 3000ft
5 à 8 km
1000 à 3000 ft
1500m à 5 km
500 à 1000 ft
800 à 1500m
200 à 500 ft
< 800m
< 200 ft
Symboles :   Orages  Brouillard  Fortes neiges  Fortes précipitations  Vent > 20 kt






- Altitude de l'aérodrome : 1065 ft


KFRI - Marshall Army Air Field

DERNIER METAR :
  • 121856Z AUTO 22012KT 10SM CLR M01/M15 A3048 RMK AO2 SLP337 T10151147

METARs EXPIRÉS :
  • 121756Z AUTO 21009KT 10SM CLR M03/M15 A3054 RMK AO2 SLP357 T10301153 11030 21140 57033
  • 121656Z AUTO 18008KT 10SM CLR M05/M15 A3058 RMK AO2 SLP372 T10471146

TAF TAF KFRI
Valide du 12 à 13h jusqu'au 13 à 19h UTC


121300Z 1213/1319 VRB06KT 9999 SKC QNH3055INS
BECMG 1217/1218 20012G18KT 9999 SKC QNH3023INS
BECMG 1302/1303 22012KT 9999 FEW150 520203 QNH2994INS TX01/1221Z TNM13/1213Z



MET'MAP, la Météo Aéronautique d'un coup d'oeil ! - Copyright ORBIFLY Décembre 2007 - Disclaimer

ORBIFLY MET'MAP TEAM :

Programmation & Développement : Alexandra Zaïnal
Conception & Développement : Baudouin d'Aumeries
Co-Programmation & Développement : Marc-Olivier Méhu
Soutien technique & logistique : Manuel Goepfert

Contact : metmap@orbifly.com




SOURCES & CREDITS :

   NOAA       Earth
Advisory